KCNY/CNY METAR and TAF weather

Enter ICAO airport designator
Station Type Date Time Source
KCNY METAR 2018/10/21 04:53 UTC NOAA

KCNY 210453Z AUTO 00000KT 10SM CLR 10/07 A3026 RMK AO2 SLP228 T01000067


Station Type Date Time Source
KCNY Decoded METAR 2018/10/21 04:53 UTC NOAA

MOAB CANYONLANDS FIELD, UT, United States (KCNY) 38-46N 109-45W 1390M
Oct 21, 2018 - 12:53 AM EDT / 2018.10.21 0453 UTC
Wind: Calm:0
Visibility: 10 mile(s):0
Sky conditions: clear
Temperature: 50.0 F (10.0 C)
Dew Point: 44.1 F (6.7 C)
Relative Humidity: 79%
Pressure (altimeter): 30.26 in. Hg (1024 hPa)
ob: KCNY 210453Z AUTO 00000KT 10SM CLR 10/07 A3026 RMK AO2 SLP228 T01000067
cycle: 5

Station Type Date Time Source
KCNY TAF 2018/10/21 06:39 UTC NOAA

TAF KCNY 210536Z 2106/2206 VRB03KT P6SM FEW090 FEW250
FM211400 10005KT P6SM FEW090 SCT250
FM212100 34007KT P6SM FEW090 FEW250
FM220200 VRB04KT P6SM FEW090 SCT250


Example: see airport list